Date,TemperatureHighF,TemperatureAvgF,TemperatureLowF,DewpointHighF,DewpointAvgF,DewpointLowF,HumidityHigh,HumidityAvg,HumidityLow,PressureMaxIn,PressureMinIn,WindSpeedMaxMPH,WindSpeedAvgMPH,GustSpeedMaxMPH,PrecipitationSumIn
2013-12-1,32,30,29,32,25,-100,97,92,95,30.05,30.00,1,-42,3,0.00
2013-12-2,38,32,28,36,32,28,98,96,91,30.00,29.87,1,0,3,0.02
2013-12-3,47,34,29,39,31,28,99,90,71,29.98,29.88,4,0,7,0.02
2013-12-4,42,32,26,33,27,24,94,85,62,30.13,29.98,3,0,5,0.00
2013-12-5,56,46,28,52,42,26,97,88,79,30.11,29.79,20,6,26,0.00
2013-12-6,53,37,32,51,35,28,98,91,80,30.11,29.83,4,0,9,0.64
2013-12-7,34,28,22,29,20,16,87,71,49,30.43,30.07,7,1,14,0.00
2013-12-8,29,24,21,17,14,11,77,65,55,30.56,30.43,14,1,14,0.00
2013-12-9,39,30,24,35,25,13,91,79,60,30.43,29.81,23,8,45,0.00
2013-12-10,36,29,21,31,19,8,82,67,54,29.89,29.75,8,1,10,0.01
2013-12-11,25,20,13,19,14,8,90,76,60,30.15,29.90,7,1,13,0.00
2013-12-12,21,13,3,11,6,0,90,74,49,30.28,29.93,13,3,22,0.00
2013-12-13,18,11,-2,13,6,-6,88,79,70,30.43,29.87,11,2,14,0.00
2013-12-14,13,5,-5,9,-2,-8,86,75,51,30.60,30.11,20,4,42,0.00
2013-12-15,25,20,11,21,17,9,93,88,80,30.09,29.52,31,4,48,0.00
2013-12-16,22,10,-6,15,4,-10,93,78,53,30.24,29.67,5,1,8,0.00
2013-12-17,15,4,-12,12,-1,-17,90,83,72,30.25,30.01,11,1,13,0.00
2013-12-18,34,20,11,24,17,9,93,86,65,30.00,29.91,7,1,12,0.00
2013-12-19,34,30,23,29,24,21,93,82,67,30.05,29.88,11,1,13,0.00
2013-12-20,39,32,26,37,30,25,96,93,88,30.05,29.84,8,0,11,0.00
2013-12-21,52,37,27,48,34,-100,99,92,86,29.93,29.75,12,-8,18,0.30
2013-12-22,37,30,26,37,28,-100,98,96,95,29.93,29.70,9,-9,14,0.00
2013-12-23,37,32,26,37,32,25,99,98,95,30.13,29.92,4,1,7,0.01
2013-12-24,27,18,6,25,15,3,95,87,71,30.31,30.11,4,1,16,0.00
2013-12-25,22,10,-1,12,5,-4,91,82,60,30.54,30.32,4,0,9,0.00
2013-12-26,27,23,18,25,19,9,95,86,64,30.36,30.07,10,2,13,0.00
2013-12-27,32,24,18,24,22,17,95,88,71,30.19,30.12,9,1,13,0.00
2013-12-28,38,33,18,33,28,16,95,83,76,30.11,29.95,8,2,19,0.00
2013-12-29,44,36,28,36,32,27,98,85,61,29.96,29.54,11,2,14,0.39
2013-12-30,36,21,3,35,16,-2,98,80,54,30.19,29.54,11,2,16,0.02
2013-12-31,17,11,5,13,6,-2,85,78,60,30.18,29.98,7,1,9,0.00